sensor_id;sensor_type;location;lat;lon;timestamp;pressure;altitude;pressure_sealevel;temperature;humidity
69223;BME280;56514;51.816;-0.026;2022-09-09T00:02:48;99696.88;;;18.17;72.75
69223;BME280;56514;51.816;-0.026;2022-09-09T00:08:53;99696.53;;;18.20;72.88
69223;BME280;56514;51.816;-0.026;2022-09-09T00:11:52;99696.66;;;18.27;72.85
69223;BME280;56514;51.816;-0.026;2022-09-09T00:14:51;99692.63;;;18.31;72.96
69223;BME280;56514;51.816;-0.026;2022-09-09T00:20:48;99690.63;;;18.33;72.85
69223;BME280;56514;51.816;-0.026;2022-09-09T00:23:38;99690.63;;;18.33;73.05
69223;BME280;56514;51.816;-0.026;2022-09-09T00:26:41;99685.09;;;18.34;72.52
69223;BME280;56514;51.816;-0.026;2022-09-09T00:32:45;99684.06;;;18.35;73.07
69223;BME280;56514;51.816;-0.026;2022-09-09T00:35:31;99680.75;;;18.33;72.63
69223;BME280;56514;51.816;-0.026;2022-09-09T00:41:13;99677.44;;;18.31;72.49
69223;BME280;56514;51.816;-0.026;2022-09-09T00:44:32;99677.09;;;18.34;72.84
69223;BME280;56514;51.816;-0.026;2022-09-09T00:56:27;99673.22;;;18.37;72.89
69223;BME280;56514;51.816;-0.026;2022-09-09T01:03:21;99675.03;;;18.36;72.69
69223;BME280;56514;51.816;-0.026;2022-09-09T01:09:38;99676.75;;;18.37;73.40
69223;BME280;56514;51.816;-0.026;2022-09-09T01:12:41;99668.06;;;18.35;73.43
69223;BME280;56514;51.816;-0.026;2022-09-09T01:15:30;99666.22;;;18.36;73.26
69223;BME280;56514;51.816;-0.026;2022-09-09T01:18:17;99668.06;;;18.35;73.15
69223;BME280;56514;51.816;-0.026;2022-09-09T01:21:14;99658.06;;;18.37;72.90
69223;BME280;56514;51.816;-0.026;2022-09-09T01:25:11;99668.75;;;18.37;73.37
69223;BME280;56514;51.816;-0.026;2022-09-09T01:27:33;99660.75;;;18.37;73.35
69223;BME280;56514;51.816;-0.026;2022-09-09T01:30:21;99666.88;;;18.38;73.21
69223;BME280;56514;51.816;-0.026;2022-09-09T01:33:12;99659.03;;;18.36;73.26
69223;BME280;56514;51.816;-0.026;2022-09-09T01:36:08;99654.53;;;18.37;73.43
69223;BME280;56514;51.816;-0.026;2022-09-09T01:38:55;99656.22;;;18.38;72.92
69223;BME280;56514;51.816;-0.026;2022-09-09T01:41:40;99648.00;;;18.39;73.06
69223;BME280;56514;51.816;-0.026;2022-09-09T01:44:27;99655.03;;;18.40;73.33
69223;BME280;56514;51.816;-0.026;2022-09-09T01:47:12;99654.38;;;18.38;72.85
69223;BME280;56514;51.816;-0.026;2022-09-09T01:50:01;99650.69;;;18.39;73.39
69223;BME280;56514;51.816;-0.026;2022-09-09T01:52:52;99648.84;;;18.40;72.86
69223;BME280;56514;51.816;-0.026;2022-09-09T01:55:42;99655.03;;;18.40;73.15
69223;BME280;56514;51.816;-0.026;2022-09-09T01:58:57;99651.53;;;18.40;73.30
69223;BME280;56514;51.816;-0.026;2022-09-09T02:04:55;99648.19;;;18.38;72.90
69223;BME280;56514;51.816;-0.026;2022-09-09T02:07:48;99652.72;;;18.37;72.72
69223;BME280;56514;51.816;-0.026;2022-09-09T02:10:50;99657.03;;;18.38;72.97
69223;BME280;56514;51.816;-0.026;2022-09-09T02:13:44;99650.69;;;18.39;73.24
69223;BME280;56514;51.816;-0.026;2022-09-09T02:19:48;99648.31;;;18.44;73.05
69223;BME280;56514;51.816;-0.026;2022-09-09T02:22:38;99647.28;;;18.45;73.08
69223;BME280;56514;51.816;-0.026;2022-09-09T02:25:26;99643.63;;;18.46;73.03
69223;BME280;56514;51.816;-0.026;2022-09-09T02:28:15;99644.44;;;18.47;73.12
69223;BME280;56514;51.816;-0.026;2022-09-09T02:31:02;99632.47;;;18.43;73.15
69223;BME280;56514;51.816;-0.026;2022-09-09T02:33:59;99636.78;;;18.44;73.14
69223;BME280;56514;51.816;-0.026;2022-09-09T02:36:45;99643.00;;;18.36;73.12
69223;BME280;56514;51.816;-0.026;2022-09-09T02:39:32;99643.72;;;18.30;73.85
69223;BME280;56514;51.816;-0.026;2022-09-09T02:42:17;99648.44;;;18.28;73.87
69223;BME280;56514;51.816;-0.026;2022-09-09T02:45:03;99651.09;;;18.28;73.90
69223;BME280;56514;51.816;-0.026;2022-09-09T02:51:23;99648.72;;;17.88;75.30
69223;BME280;56514;51.816;-0.026;2022-09-09T02:54:34;99644.47;;;17.71;75.67
69223;BME280;56514;51.816;-0.026;2022-09-09T02:57:26;99645.38;;;17.56;75.99
69223;BME280;56514;51.816;-0.026;2022-09-09T03:00:13;99654.09;;;17.41;76.45
69223;BME280;56514;51.816;-0.026;2022-09-09T03:02:58;99662.94;;;17.34;76.78
69223;BME280;56514;51.816;-0.026;2022-09-09T03:05:44;99655.78;;;17.34;76.39
69223;BME280;56514;51.816;-0.026;2022-09-09T03:08:29;99657.59;;;17.34;76.47
69223;BME280;56514;51.816;-0.026;2022-09-09T03:11:16;99658.63;;;17.33;76.80
69223;BME280;56514;51.816;-0.026;2022-09-09T03:14:01;99664.97;;;17.32;77.21
69223;BME280;56514;51.816;-0.026;2022-09-09T03:16:47;99669.28;;;17.33;77.39
69223;BME280;56514;51.816;-0.026;2022-09-09T03:19:35;99668.63;;;17.31;78.29
69223;BME280;56514;51.816;-0.026;2022-09-09T03:22:20;99671.81;;;17.26;78.31
69223;BME280;56514;51.816;-0.026;2022-09-09T03:25:06;99670.16;;;17.25;79.00
69223;BME280;56514;51.816;-0.026;2022-09-09T03:27:53;99670.50;;;17.22;78.85
69223;BME280;56514;51.816;-0.026;2022-09-09T03:30:39;99675.50;;;17.17;79.30
69223;BME280;56514;51.816;-0.026;2022-09-09T03:33:24;99668.00;;;17.21;79.14
69223;BME280;56514;51.816;-0.026;2022-09-09T03:36:09;99674.63;;;17.25;78.70
69223;BME280;56514;51.816;-0.026;2022-09-09T03:38:54;99675.66;;;17.24;78.45
69223;BME280;56514;51.816;-0.026;2022-09-09T03:41:40;99682.63;;;17.25;79.16
69223;BME280;56514;51.816;-0.026;2022-09-09T03:44:24;99688.97;;;17.32;78.72
69223;BME280;56514;51.816;-0.026;2022-09-09T03:47:09;99690.44;;;17.34;78.98
69223;BME280;56514;51.816;-0.026;2022-09-09T03:49:54;99691.91;;;17.37;78.53
69223;BME280;56514;51.816;-0.026;2022-09-09T03:52:40;99697.75;;;17.40;79.03
69223;BME280;56514;51.816;-0.026;2022-09-09T03:55:29;99693.78;;;17.44;79.06
69223;BME280;56514;51.816;-0.026;2022-09-09T03:58:14;99701.63;;;17.46;78.51
69223;BME280;56514;51.816;-0.026;2022-09-09T04:01:06;99702.41;;;17.46;78.60
69223;BME280;56514;51.816;-0.026;2022-09-09T04:03:50;99698.09;;;17.37;78.37
69223;BME280;56514;51.816;-0.026;2022-09-09T04:06:37;99692.94;;;17.28;79.09
69223;BME280;56514;51.816;-0.026;2022-09-09T04:09:22;99700.66;;;17.23;79.67
69223;BME280;56514;51.816;-0.026;2022-09-09T04:12:09;99700.31;;;17.26;79.37
69223;BME280;56514;51.816;-0.026;2022-09-09T04:14:58;99708.13;;;17.27;79.24
69223;BME280;56514;51.816;-0.026;2022-09-09T04:17:42;99697.47;;;17.27;79.86
69223;BME280;56514;51.816;-0.026;2022-09-09T04:20:27;99699.97;;;17.29;79.25
69223;BME280;56514;51.816;-0.026;2022-09-09T04:23:12;99698.28;;;17.28;79.52
69223;BME280;56514;51.816;-0.026;2022-09-09T04:25:59;99705.13;;;17.22;79.50
69223;BME280;56514;51.816;-0.026;2022-09-09T04:28:44;99706.31;;;17.20;80.09
69223;BME280;56514;51.816;-0.026;2022-09-09T04:31:29;99705.97;;;17.23;79.36
69223;BME280;56514;51.816;-0.026;2022-09-09T04:34:14;99704.00;;;17.17;79.88
69223;BME280;56514;51.816;-0.026;2022-09-09T04:36:59;99703.50;;;17.13;79.89
69223;BME280;56514;51.816;-0.026;2022-09-09T04:39:44;99702.84;;;17.11;79.72
69223;BME280;56514;51.816;-0.026;2022-09-09T04:42:30;99714.00;;;17.07;79.83
69223;BME280;56514;51.816;-0.026;2022-09-09T04:45:14;99719.34;;;17.07;79.47
69223;BME280;56514;51.816;-0.026;2022-09-09T04:48:00;99717.84;;;17.04;80.07
69223;BME280;56514;51.816;-0.026;2022-09-09T04:50:54;99722.50;;;17.02;79.80
69223;BME280;56514;51.816;-0.026;2022-09-09T04:53:40;99720.69;;;17.03;80.02
69223;BME280;56514;51.816;-0.026;2022-09-09T04:56:25;99722.66;;;17.01;80.01
69223;BME280;56514;51.816;-0.026;2022-09-09T04:59:12;99724.34;;;17.02;79.48
69223;BME280;56514;51.816;-0.026;2022-09-09T05:01:57;99738.16;;;16.97;80.27
69223;BME280;56514;51.816;-0.026;2022-09-09T05:04:43;99731.69;;;17.00;79.94
69223;BME280;56514;51.816;-0.026;2022-09-09T05:07:27;99736.16;;;17.07;79.55
69223;BME280;56514;51.816;-0.026;2022-09-09T05:10:13;99736.34;;;16.98;80.07
69223;BME280;56514;51.816;-0.026;2022-09-09T05:13:02;99724.19;;;16.95;80.25
69223;BME280;56514;51.816;-0.026;2022-09-09T05:15:53;99735.50;;;16.97;80.59
69223;BME280;56514;51.816;-0.026;2022-09-09T05:18:39;99733.31;;;17.01;79.81
69223;BME280;56514;51.816;-0.026;2022-09-09T05:21:25;99741.66;;;16.98;80.46
69223;BME280;56514;51.816;-0.026;2022-09-09T05:24:10;99741.50;;;16.99;80.10
69223;BME280;56514;51.816;-0.026;2022-09-09T05:26:55;99739.50;;;17.01;79.82
69223;BME280;56514;51.816;-0.026;2022-09-09T05:29:43;99744.31;;;16.98;79.67
69223;BME280;56514;51.816;-0.026;2022-09-09T05:32:30;99746.81;;;16.99;79.69
69223;BME280;56514;51.816;-0.026;2022-09-09T05:35:16;99744.00;;;17.01;79.71
69223;BME280;56514;51.816;-0.026;2022-09-09T05:38:03;99754.66;;;17.01;79.36
69223;BME280;56514;51.816;-0.026;2022-09-09T05:40:49;99747.66;;;16.92;79.82
69223;BME280;56514;51.816;-0.026;2022-09-09T05:43:35;99761.66;;;16.94;79.85
69223;BME280;56514;51.816;-0.026;2022-09-09T05:46:23;99762.00;;;16.91;80.25
69223;BME280;56514;51.816;-0.026;2022-09-09T05:49:09;99767.63;;;16.96;79.93
69223;BME280;56514;51.816;-0.026;2022-09-09T05:51:55;99767.00;;;17.02;79.79
69223;BME280;56514;51.816;-0.026;2022-09-09T05:54:40;99774.66;;;17.05;79.04
69223;BME280;56514;51.816;-0.026;2022-09-09T05:57:26;99784.28;;;17.06;78.79
69223;BME280;56514;51.816;-0.026;2022-09-09T06:00:11;99779.28;;;16.95;79.32
69223;BME280;56514;51.816;-0.026;2022-09-09T06:02:57;99781.97;;;16.95;79.74
69223;BME280;56514;51.816;-0.026;2022-09-09T06:05:42;99789.13;;;16.94;79.44
69223;BME280;56514;51.816;-0.026;2022-09-09T06:08:27;99787.78;;;16.98;79.80
69223;BME280;56514;51.816;-0.026;2022-09-09T06:11:18;99792.78;;;17.09;79.32
69223;BME280;56514;51.816;-0.026;2022-09-09T06:14:03;99792.47;;;17.12;78.88
69223;BME280;56514;51.816;-0.026;2022-09-09T06:16:49;99791.28;;;17.15;78.45
69223;BME280;56514;51.816;-0.026;2022-09-09T06:19:34;99794.63;;;17.09;78.29
69223;BME280;56514;51.816;-0.026;2022-09-09T06:22:19;99799.78;;;17.02;78.11
69223;BME280;56514;51.816;-0.026;2022-09-09T06:25:05;99810.44;;;17.10;77.96
69223;BME280;56514;51.816;-0.026;2022-09-09T06:27:50;99807.25;;;17.07;78.29
69223;BME280;56514;51.816;-0.026;2022-09-09T06:30:35;99813.59;;;17.06;78.94
69223;BME280;56514;51.816;-0.026;2022-09-09T06:33:20;99814.59;;;17.13;79.00
69223;BME280;56514;51.816;-0.026;2022-09-09T06:36:20;99809.94;;;17.15;78.33
69223;BME280;56514;51.816;-0.026;2022-09-09T06:39:06;99819.25;;;17.27;77.74
69223;BME280;56514;51.816;-0.026;2022-09-09T06:41:52;99820.22;;;17.34;78.11
69223;BME280;56514;51.816;-0.026;2022-09-09T06:44:37;99830.56;;;17.45;77.68
69223;BME280;56514;51.816;-0.026;2022-09-09T06:47:22;99835.22;;;17.59;77.04
69223;BME280;56514;51.816;-0.026;2022-09-09T06:50:07;99833.56;;;17.58;76.97
69223;BME280;56514;51.816;-0.026;2022-09-09T06:52:52;99831.88;;;17.57;76.71
69223;BME280;56514;51.816;-0.026;2022-09-09T06:55:37;99829.03;;;17.59;76.14
69223;BME280;56514;51.816;-0.026;2022-09-09T06:58:22;99834.56;;;17.57;76.30
69223;BME280;56514;51.816;-0.026;2022-09-09T07:01:07;99840.06;;;17.56;75.99
69223;BME280;56514;51.816;-0.026;2022-09-09T07:03:54;99846.22;;;17.64;76.26
69223;BME280;56514;51.816;-0.026;2022-09-09T07:06:42;99850.03;;;17.70;77.11
69223;BME280;56514;51.816;-0.026;2022-09-09T07:09:30;99858.69;;;17.80;76.33
69223;BME280;56514;51.816;-0.026;2022-09-09T07:12:16;99856.19;;;17.78;76.31
69223;BME280;56514;51.816;-0.026;2022-09-09T07:15:01;99854.34;;;17.79;76.43
69223;BME280;56514;51.816;-0.026;2022-09-09T07:17:46;99860.00;;;17.84;76.02
69223;BME280;56514;51.816;-0.026;2022-09-09T07:20:31;99863.50;;;17.84;75.85
69223;BME280;56514;51.816;-0.026;2022-09-09T07:23:15;99860.84;;;17.84;75.34
69223;BME280;56514;51.816;-0.026;2022-09-09T07:26:01;99863.19;;;17.79;75.06
69223;BME280;56514;51.816;-0.026;2022-09-09T07:28:47;99869.38;;;17.72;75.86
69223;BME280;56514;51.816;-0.026;2022-09-09T07:31:35;99880.16;;;17.86;75.81
69223;BME280;56514;51.816;-0.026;2022-09-09T07:34:21;99876.84;;;17.84;75.51
69223;BME280;56514;51.816;-0.026;2022-09-09T07:37:06;99876.19;;;17.90;74.98
69223;BME280;56514;51.816;-0.026;2022-09-09T07:39:51;99880.47;;;17.99;75.88
69223;BME280;56514;51.816;-0.026;2022-09-09T07:42:36;99876.25;;;18.13;75.02
69223;BME280;56514;51.816;-0.026;2022-09-09T07:45:22;99888.56;;;18.22;74.62
69223;BME280;56514;51.816;-0.026;2022-09-09T07:48:06;99890.41;;;18.21;74.11
69223;BME280;56514;51.816;-0.026;2022-09-09T07:50:51;99888.66;;;18.36;74.07
69223;BME280;56514;51.816;-0.026;2022-09-09T07:53:37;99894.31;;;18.49;74.05
69223;BME280;56514;51.816;-0.026;2022-09-09T07:56:22;99896.84;;;18.73;71.87
69223;BME280;56514;51.816;-0.026;2022-09-09T07:59:08;99904.81;;;18.59;73.12
69223;BME280;56514;51.816;-0.026;2022-09-09T08:01:54;99904.81;;;18.59;72.87
69223;BME280;56514;51.816;-0.026;2022-09-09T08:04:39;99905.97;;;18.56;73.38
69223;BME280;56514;51.816;-0.026;2022-09-09T08:07:24;99916.56;;;18.72;72.47
69223;BME280;56514;51.816;-0.026;2022-09-09T08:10:09;99918.09;;;18.67;71.60
69223;BME280;56514;51.816;-0.026;2022-09-09T08:12:55;99921.78;;;18.66;72.33
69223;BME280;56514;51.816;-0.026;2022-09-09T08:15:39;99920.97;;;18.88;71.72
69223;BME280;56514;51.816;-0.026;2022-09-09T08:18:26;99920.19;;;19.10;71.48
69223;BME280;56514;51.816;-0.026;2022-09-09T08:21:17;99922.31;;;19.14;69.03
69223;BME280;56514;51.816;-0.026;2022-09-09T08:24:04;99938.69;;;18.89;69.83
69223;BME280;56514;51.816;-0.026;2022-09-09T08:26:49;99940.53;;;18.88;70.61
69223;BME280;56514;51.816;-0.026;2022-09-09T08:29:35;99937.00;;;18.88;71.08
69223;BME280;56514;51.816;-0.026;2022-09-09T08:32:22;99944.53;;;19.15;70.28
69223;BME280;56514;51.816;-0.026;2022-09-09T08:35:08;99946.09;;;19.32;69.51
69223;BME280;56514;51.816;-0.026;2022-09-09T08:37:56;99953.72;;;19.43;69.33
69223;BME280;56514;51.816;-0.026;2022-09-09T08:40:45;99947.34;;;19.67;67.75
69223;BME280;56514;51.816;-0.026;2022-09-09T08:43:35;99953.75;;;19.80;67.72
69223;BME280;56514;51.816;-0.026;2022-09-09T08:46:32;99947.00;;;19.84;67.06
69223;BME280;56514;51.816;-0.026;2022-09-09T08:53:11;99957.81;;;19.76;67.75
69223;BME280;56514;51.816;-0.026;2022-09-09T08:58:27;99961.88;;;19.50;68.11
69223;BME280;56514;51.816;-0.026;2022-09-09T09:01:36;99971.19;;;19.54;67.46
69223;BME280;56514;51.816;-0.026;2022-09-09T09:04:38;99977.50;;;19.38;68.51
69223;BME280;56514;51.816;-0.026;2022-09-09T09:10:48;99982.03;;;19.38;67.90
69223;BME280;56514;51.816;-0.026;2022-09-09T09:13:43;99981.88;;;19.54;67.67
69223;BME280;56514;51.816;-0.026;2022-09-09T09:17:01;99985.75;;;19.51;67.57
69223;BME280;56514;51.816;-0.026;2022-09-09T09:19:47;99990.09;;;19.52;67.45
69223;BME280;56514;51.816;-0.026;2022-09-09T09:25:34;100005.69;;;19.49;66.69
69223;BME280;56514;51.816;-0.026;2022-09-09T09:28:25;100006.22;;;19.67;66.53
69223;BME280;56514;51.816;-0.026;2022-09-09T09:31:12;100010.94;;;20.02;65.28
69223;BME280;56514;51.816;-0.026;2022-09-09T09:33:58;100010.63;;;20.34;64.61
69223;BME280;56514;51.816;-0.026;2022-09-09T09:36:52;100016.75;;;20.57;62.51
69223;BME280;56514;51.816;-0.026;2022-09-09T09:39:38;100019.22;;;20.44;63.40
69223;BME280;56514;51.816;-0.026;2022-09-09T09:42:24;100022.19;;;20.49;63.81
69223;BME280;56514;51.816;-0.026;2022-09-09T09:45:22;100025.69;;;20.78;62.02
69223;BME280;56514;51.816;-0.026;2022-09-09T09:48:13;100024.69;;;20.79;60.97
69223;BME280;56514;51.816;-0.026;2022-09-09T09:51:01;100028.00;;;20.81;61.25
69223;BME280;56514;51.816;-0.026;2022-09-09T09:53:48;100033.81;;;20.85;60.63
69223;BME280;56514;51.816;-0.026;2022-09-09T09:56:35;100037.59;;;20.90;60.31
69223;BME280;56514;51.816;-0.026;2022-09-09T09:59:23;100045.75;;;20.97;59.50
69223;BME280;56514;51.816;-0.026;2022-09-09T10:02:24;100044.53;;;20.85;60.00
69223;BME280;56514;51.816;-0.026;2022-09-09T10:05:46;100040.13;;;20.77;59.44
69223;BME280;56514;51.816;-0.026;2022-09-09T10:08:34;100039.94;;;20.50;60.39
69223;BME280;56514;51.816;-0.026;2022-09-09T10:17:45;100057.94;;;20.41;61.10
69223;BME280;56514;51.816;-0.026;2022-09-09T10:24:11;100053.72;;;20.61;60.41
69223;BME280;56514;51.816;-0.026;2022-09-09T10:27:20;100062.75;;;20.89;59.24
69223;BME280;56514;51.816;-0.026;2022-09-09T10:33:04;100062.22;;;21.09;58.52
69223;BME280;56514;51.816;-0.026;2022-09-09T10:36:13;100060.06;;;21.33;57.62
69223;BME280;56514;51.816;-0.026;2022-09-09T10:39:05;100056.53;;;21.33;57.97
69223;BME280;56514;51.816;-0.026;2022-09-09T10:53:53;100057.63;;;21.95;54.78
69223;BME280;56514;51.816;-0.026;2022-09-09T10:56:44;100064.97;;;22.07;55.18
69223;BME280;56514;51.816;-0.026;2022-09-09T10:59:41;100064.13;;;22.07;55.23
69223;BME280;56514;51.816;-0.026;2022-09-09T11:02:29;100078.06;;;21.96;55.49
69223;BME280;56514;51.816;-0.026;2022-09-09T11:05:39;100068.63;;;22.00;55.60
69223;BME280;56514;51.816;-0.026;2022-09-09T11:08:29;100068.50;;;22.63;54.02
69223;BME280;56514;51.816;-0.026;2022-09-09T11:11:37;100066.13;;;22.81;52.11
69223;BME280;56514;51.816;-0.026;2022-09-09T11:14:41;100071.50;;;22.75;53.31
69223;BME280;56514;51.816;-0.026;2022-09-09T11:17:35;100068.81;;;22.81;52.03
69223;BME280;56514;51.816;-0.026;2022-09-09T11:20:22;100074.13;;;22.68;53.33
69223;BME280;56514;51.816;-0.026;2022-09-09T11:23:13;100078.91;;;23.07;53.11
69223;BME280;56514;51.816;-0.026;2022-09-09T11:26:02;100078.19;;;23.26;52.27
69223;BME280;56514;51.816;-0.026;2022-09-09T11:28:59;100075.59;;;23.05;52.27
69223;BME280;56514;51.816;-0.026;2022-09-09T11:31:46;100074.72;;;22.64;53.52
69223;BME280;56514;51.816;-0.026;2022-09-09T11:40:38;100081.28;;;22.89;52.71
69223;BME280;56514;51.816;-0.026;2022-09-09T11:43:29;100080.06;;;22.91;52.39
69223;BME280;56514;51.816;-0.026;2022-09-09T11:46:18;100086.78;;;23.08;52.27
69223;BME280;56514;51.816;-0.026;2022-09-09T11:49:06;100082.84;;;23.51;51.82
69223;BME280;56514;51.816;-0.026;2022-09-09T11:51:51;100086.44;;;23.78;50.69
69223;BME280;56514;51.816;-0.026;2022-09-09T11:54:46;100088.78;;;24.00;50.71
69223;BME280;56514;51.816;-0.026;2022-09-09T11:57:36;100078.00;;;24.40;49.75
69223;BME280;56514;51.816;-0.026;2022-09-09T12:03:44;100082.59;;;24.39;49.41
69223;BME280;56514;51.816;-0.026;2022-09-09T12:06:32;100083.97;;;24.87;49.48
69223;BME280;56514;51.816;-0.026;2022-09-09T12:12:36;100088.38;;;24.62;48.66
69223;BME280;56514;51.816;-0.026;2022-09-09T12:15:24;100093.53;;;24.44;48.93
69223;BME280;56514;51.816;-0.026;2022-09-09T12:18:25;100088.19;;;24.38;48.25
69223;BME280;56514;51.816;-0.026;2022-09-09T12:33:43;100082.97;;;24.56;46.95
69223;BME280;56514;51.816;-0.026;2022-09-09T12:36:32;100081.13;;;24.43;46.87
69223;BME280;56514;51.816;-0.026;2022-09-09T12:39:22;100092.31;;;24.40;47.56
69223;BME280;56514;51.816;-0.026;2022-09-09T12:42:21;100085.47;;;24.38;47.22
69223;BME280;56514;51.816;-0.026;2022-09-09T12:45:19;100088.38;;;24.30;47.70
69223;BME280;56514;51.816;-0.026;2022-09-09T12:48:10;100086.09;;;24.20;47.70
69223;BME280;56514;51.816;-0.026;2022-09-09T12:51:03;100092.28;;;24.07;47.94
69223;BME280;56514;51.816;-0.026;2022-09-09T12:53:51;100092.25;;;23.88;48.93
69223;BME280;56514;51.816;-0.026;2022-09-09T12:56:36;100099.50;;;23.81;49.40
69223;BME280;56514;51.816;-0.026;2022-09-09T12:59:37;100094.94;;;23.81;48.76
69223;BME280;56514;51.816;-0.026;2022-09-09T13:02:26;100093.75;;;23.97;48.58
69223;BME280;56514;51.816;-0.026;2022-09-09T13:05:15;100091.69;;;24.38;48.76
69223;BME280;56514;51.816;-0.026;2022-09-09T13:08:09;100078.34;;;25.90;46.38
69223;BME280;56514;51.816;-0.026;2022-09-09T13:11:04;100091.22;;;29.05;40.74
69223;BME280;56514;51.816;-0.026;2022-09-09T13:13:54;100095.78;;;29.67;36.31
69223;BME280;56514;51.816;-0.026;2022-09-09T13:20:06;100073.94;;;26.51;41.72
69223;BME280;56514;51.816;-0.026;2022-09-09T13:22:58;100094.25;;;25.73;44.21
69223;BME280;56514;51.816;-0.026;2022-09-09T13:25:53;100102.75;;;25.26;44.91
69223;BME280;56514;51.816;-0.026;2022-09-09T13:28:38;100088.16;;;25.47;45.42
69223;BME280;56514;51.816;-0.026;2022-09-09T13:31:28;100089.72;;;26.30;43.54
69223;BME280;56514;51.816;-0.026;2022-09-09T13:34:25;100089.97;;;25.91;44.08
69223;BME280;56514;51.816;-0.026;2022-09-09T13:37:26;100096.47;;;26.21;42.13
69223;BME280;56514;51.816;-0.026;2022-09-09T13:40:18;100096.97;;;25.16;43.90
69223;BME280;56514;51.816;-0.026;2022-09-09T13:43:04;100109.31;;;24.34;45.62
69223;BME280;56514;51.816;-0.026;2022-09-09T13:45:58;100110.34;;;24.00;47.26
69223;BME280;56514;51.816;-0.026;2022-09-09T13:48:54;100098.31;;;24.94;45.81
69223;BME280;56514;51.816;-0.026;2022-09-09T13:51:47;100097.81;;;25.67;43.44
69223;BME280;56514;51.816;-0.026;2022-09-09T13:54:36;100096.91;;;25.42;44.39
69223;BME280;56514;51.816;-0.026;2022-09-09T13:57:23;100104.66;;;25.19;44.66
69223;BME280;56514;51.816;-0.026;2022-09-09T14:00:11;100110.50;;;26.05;44.49
69223;BME280;56514;51.816;-0.026;2022-09-09T14:02:57;100120.38;;;27.33;41.82
69223;BME280;56514;51.816;-0.026;2022-09-09T14:05:43;100116.81;;;27.99;40.04
69223;BME280;56514;51.816;-0.026;2022-09-09T14:08:29;100125.22;;;28.61;37.24
69223;BME280;56514;51.816;-0.026;2022-09-09T14:11:18;100126.94;;;26.59;40.56
69223;BME280;56514;51.816;-0.026;2022-09-09T14:14:03;100142.72;;;24.85;44.11
69223;BME280;56514;51.816;-0.026;2022-09-09T14:16:49;100135.94;;;23.70;47.14
69223;BME280;56514;51.816;-0.026;2022-09-09T14:19:36;100146.25;;;23.20;49.56
69223;BME280;56514;51.816;-0.026;2022-09-09T14:22:22;100144.13;;;22.81;51.53
69223;BME280;56514;51.816;-0.026;2022-09-09T14:25:08;100140.03;;;23.19;51.80
69223;BME280;56514;51.816;-0.026;2022-09-09T14:27:53;100137.22;;;25.81;45.16
69223;BME280;56514;51.816;-0.026;2022-09-09T14:30:42;100135.34;;;27.84;41.24
69223;BME280;56514;51.816;-0.026;2022-09-09T14:34:02;100125.97;;;29.82;36.97
69223;BME280;56514;51.816;-0.026;2022-09-09T14:36:47;100126.75;;;30.22;34.80
69223;BME280;56514;51.816;-0.026;2022-09-09T14:39:32;100135.84;;;29.72;36.49
69223;BME280;56514;51.816;-0.026;2022-09-09T14:42:17;100137.84;;;30.49;34.66
69223;BME280;56514;51.816;-0.026;2022-09-09T14:45:03;100141.19;;;29.95;35.81
69223;BME280;56514;51.816;-0.026;2022-09-09T14:47:49;100139.13;;;29.23;36.08
69223;BME280;56514;51.816;-0.026;2022-09-09T14:50:35;100144.09;;;27.68;39.97
69223;BME280;56514;51.816;-0.026;2022-09-09T14:53:24;100140.84;;;26.07;43.00
69223;BME280;56514;51.816;-0.026;2022-09-09T14:58:16;100152.25;;;24.36;47.47
69223;BME280;56514;51.816;-0.026;2022-09-09T15:01:10;100156.00;;;24.54;47.55
69223;BME280;56514;51.816;-0.026;2022-09-09T15:04:00;100156.88;;;26.02;43.94
69223;BME280;56514;51.816;-0.026;2022-09-09T15:06:46;100146.63;;;26.41;43.06
69223;BME280;56514;51.816;-0.026;2022-09-09T15:09:33;100162.69;;;26.05;43.75
69223;BME280;56514;51.816;-0.026;2022-09-09T15:12:18;100159.06;;;25.10;45.16
69223;BME280;56514;51.816;-0.026;2022-09-09T15:15:04;100165.84;;;23.95;48.28
69223;BME280;56514;51.816;-0.026;2022-09-09T15:17:50;100161.47;;;23.34;50.84
69223;BME280;56514;51.816;-0.026;2022-09-09T15:20:36;100152.66;;;22.85;52.42
69223;BME280;56514;51.816;-0.026;2022-09-09T15:23:22;100157.88;;;22.44;53.93
69223;BME280;56514;51.816;-0.026;2022-09-09T15:26:07;100161.38;;;22.17;54.99
69223;BME280;56514;51.816;-0.026;2022-09-09T15:28:52;100165.63;;;22.11;55.58
69223;BME280;56514;51.816;-0.026;2022-09-09T15:31:37;100162.94;;;22.11;56.14
69223;BME280;56514;51.816;-0.026;2022-09-09T15:34:22;100163.59;;;21.92;57.08
69223;BME280;56514;51.816;-0.026;2022-09-09T15:39:45;100176.28;;;21.69;58.15
69223;BME280;56514;51.816;-0.026;2022-09-09T15:42:29;100176.03;;;21.64;58.59
69223;BME280;56514;51.816;-0.026;2022-09-09T15:45:14;100180.25;;;21.73;59.21
69223;BME280;56514;51.816;-0.026;2022-09-09T15:48:00;100182.13;;;21.58;59.54
69223;BME280;56514;51.816;-0.026;2022-09-09T15:50:45;100190.66;;;21.47;60.05
69223;BME280;56514;51.816;-0.026;2022-09-09T15:53:31;100192.53;;;21.47;59.18
69223;BME280;56514;51.816;-0.026;2022-09-09T15:56:16;100196.72;;;21.35;58.99
69223;BME280;56514;51.816;-0.026;2022-09-09T15:59:02;100200.47;;;21.26;59.47
69223;BME280;56514;51.816;-0.026;2022-09-09T16:01:50;100198.91;;;21.17;59.65
69223;BME280;56514;51.816;-0.026;2022-09-09T16:04:35;100194.75;;;21.14;59.75
69223;BME280;56514;51.816;-0.026;2022-09-09T16:07:20;100196.22;;;21.02;60.88
69223;BME280;56514;51.816;-0.026;2022-09-09T16:10:05;100200.97;;;20.77;62.66
69223;BME280;56514;51.816;-0.026;2022-09-09T16:12:50;100189.75;;;20.74;63.15
69223;BME280;56514;51.816;-0.026;2022-09-09T16:15:36;100189.41;;;20.77;63.65
69223;BME280;56514;51.816;-0.026;2022-09-09T16:18:21;100188.47;;;20.70;63.52
69223;BME280;56514;51.816;-0.026;2022-09-09T16:21:07;100200.06;;;20.85;63.74
69223;BME280;56514;51.816;-0.026;2022-09-09T16:23:53;100193.66;;;20.86;63.63
69223;BME280;56514;51.816;-0.026;2022-09-09T16:26:40;100206.69;;;21.12;62.70
69223;BME280;56514;51.816;-0.026;2022-09-09T16:29:25;100198.03;;;22.45;62.01